sensor_id;sensor_type;location;lat;lon;timestamp;pressure;altitude;pressure_sealevel;temperature;humidity
71774;BME280;59607;52.130;5.430;2023-05-10T00:00:18;100933.91;;;13.42;100.00
71774;BME280;59607;52.130;5.430;2023-05-10T00:02:45;100937.38;;;13.42;100.00
71774;BME280;59607;52.130;5.430;2023-05-10T00:05:17;100934.75;;;13.42;100.00
71774;BME280;59607;52.130;5.430;2023-05-10T00:07:43;100925.84;;;13.43;100.00
71774;BME280;59607;52.130;5.430;2023-05-10T00:10:11;100922.84;;;13.47;100.00
71774;BME280;59607;52.130;5.430;2023-05-10T00:12:45;100928.13;;;13.47;100.00
71774;BME280;59607;52.130;5.430;2023-05-10T00:15:17;100922.84;;;13.47;100.00
71774;BME280;59607;52.130;5.430;2023-05-10T00:17:46;100926.94;;;13.49;100.00
71774;BME280;59607;52.130;5.430;2023-05-10T00:20:14;100924.16;;;13.51;100.00
71774;BME280;59607;52.130;5.430;2023-05-10T00:22:47;100927.41;;;13.53;100.00
71774;BME280;59607;52.130;5.430;2023-05-10T00:25:18;100924.97;;;13.51;100.00
71774;BME280;59607;52.130;5.430;2023-05-10T00:27:50;100922.16;;;13.53;100.00
71774;BME280;59607;52.130;5.430;2023-05-10T00:30:16;100923.81;;;13.54;100.00
71774;BME280;59607;52.130;5.430;2023-05-10T00:32:52;100915.06;;;13.53;100.00
71774;BME280;59607;52.130;5.430;2023-05-10T00:35:19;100912.25;;;13.55;100.00
71774;BME280;59607;52.130;5.430;2023-05-10T00:37:46;100923.97;;;13.52;100.00
71774;BME280;59607;52.130;5.430;2023-05-10T00:40:16;100919.84;;;13.50;100.00
71774;BME280;59607;52.130;5.430;2023-05-10T00:42:43;100925.13;;;13.50;100.00
71774;BME280;59607;52.130;5.430;2023-05-10T00:45:13;100922.66;;;13.48;100.00
71774;BME280;59607;52.130;5.430;2023-05-10T00:47:39;100923.66;;;13.47;100.00
71774;BME280;59607;52.130;5.430;2023-05-10T00:50:06;100919.41;;;13.46;100.00
71774;BME280;59607;52.130;5.430;2023-05-10T00:52:33;100920.03;;;13.48;100.00
71774;BME280;59607;52.130;5.430;2023-05-10T00:55:05;100915.75;;;13.47;100.00
71774;BME280;59607;52.130;5.430;2023-05-10T00:57:32;100921.41;;;13.44;100.00
71774;BME280;59607;52.130;5.430;2023-05-10T01:00:01;100924.22;;;13.42;100.00
71774;BME280;59607;52.130;5.430;2023-05-10T01:02:39;100924.22;;;13.42;100.00
71774;BME280;59607;52.130;5.430;2023-05-10T01:05:18;100919.94;;;13.41;100.00
71774;BME280;59607;52.130;5.430;2023-05-10T01:07:47;100927.38;;;13.38;100.00
71774;BME280;59607;52.130;5.430;2023-05-10T01:10:16;100920.28;;;13.38;100.00
71774;BME280;59607;52.130;5.430;2023-05-10T01:12:47;100921.94;;;13.39;100.00
71774;BME280;59607;52.130;5.430;2023-05-10T01:15:22;100918.94;;;13.42;100.00
71774;BME280;59607;52.130;5.430;2023-05-10T01:18:05;100929.84;;;13.39;100.00
71774;BME280;59607;52.130;5.430;2023-05-10T01:20:39;100922.91;;;13.38;100.00
71774;BME280;59607;52.130;5.430;2023-05-10T01:23:11;100923.75;;;13.39;100.00
71774;BME280;59607;52.130;5.430;2023-05-10T01:38:04;100920.38;;;13.45;100.00
71774;BME280;59607;52.130;5.430;2023-05-10T01:44:16;100925.72;;;13.37;100.00
71774;BME280;59607;52.130;5.430;2023-05-10T01:46:53;100932.00;;;13.36;100.00
71774;BME280;59607;52.130;5.430;2023-05-10T01:49:25;100930.56;;;13.33;100.00
71774;BME280;59607;52.130;5.430;2023-05-10T01:52:01;100930.75;;;13.31;100.00
71774;BME280;59607;52.130;5.430;2023-05-10T01:55:14;100931.53;;;13.32;100.00
71774;BME280;59607;52.130;5.430;2023-05-10T01:57:44;100926.28;;;13.32;100.00
71774;BME280;59607;52.130;5.430;2023-05-10T02:00:15;100922.66;;;13.33;100.00
71774;BME280;59607;52.130;5.430;2023-05-10T02:02:46;100928.53;;;13.35;100.00
71774;BME280;59607;52.130;5.430;2023-05-10T02:05:16;100924.47;;;13.32;100.00
71774;BME280;59607;52.130;5.430;2023-05-10T02:07:46;100924.28;;;13.34;100.00
71774;BME280;59607;52.130;5.430;2023-05-10T02:10:14;100928.38;;;13.37;100.00
71774;BME280;59607;52.130;5.430;2023-05-10T02:12:47;100933.00;;;13.35;100.00
71774;BME280;59607;52.130;5.430;2023-05-10T02:15:20;100935.28;;;13.38;100.00
71774;BME280;59607;52.130;5.430;2023-05-10T02:17:54;100926.19;;;13.40;100.00
71774;BME280;59607;52.130;5.430;2023-05-10T02:20:25;100943.31;;;13.44;100.00
71774;BME280;59607;52.130;5.430;2023-05-10T02:22:54;100928.84;;;13.40;100.00
71774;BME280;59607;52.130;5.430;2023-05-10T02:25:27;100941.03;;;13.41;100.00
71774;BME280;59607;52.130;5.430;2023-05-10T02:27:56;100930.31;;;13.43;100.00
71774;BME280;59607;52.130;5.430;2023-05-10T02:30:25;100940.38;;;13.39;100.00
71774;BME280;59607;52.130;5.430;2023-05-10T02:33:30;100944.63;;;13.40;100.00
71774;BME280;59607;52.130;5.430;2023-05-10T02:36:01;100942.00;;;13.40;100.00
71774;BME280;59607;52.130;5.430;2023-05-10T02:38:30;100945.28;;;13.42;100.00
71774;BME280;59607;52.130;5.430;2023-05-10T02:41:04;100943.66;;;13.41;100.00
71774;BME280;59607;52.130;5.430;2023-05-10T02:43:32;100948.47;;;13.38;100.00
71774;BME280;59607;52.130;5.430;2023-05-10T02:46:05;100951.09;;;13.38;100.00
71774;BME280;59607;52.130;5.430;2023-05-10T02:48:32;100959.00;;;13.38;100.00
71774;BME280;59607;52.130;5.430;2023-05-10T02:51:04;100955.34;;;13.39;100.00
71774;BME280;59607;52.130;5.430;2023-05-10T02:53:36;100955.53;;;13.37;100.00
71774;BME280;59607;52.130;5.430;2023-05-10T02:56:35;100957.88;;;13.32;100.00
71774;BME280;59607;52.130;5.430;2023-05-10T02:59:05;100949.19;;;13.31;100.00
71774;BME280;59607;52.130;5.430;2023-05-10T03:01:34;100952.31;;;13.27;100.00
71774;BME280;59607;52.130;5.430;2023-05-10T03:04:01;100957.94;;;13.24;100.00
71774;BME280;59607;52.130;5.430;2023-05-10T03:06:33;100964.47;;;13.13;100.00
71774;BME280;59607;52.130;5.430;2023-05-10T03:09:08;100965.81;;;13.08;100.00
71774;BME280;59607;52.130;5.430;2023-05-10T03:12:18;100963.06;;;13.02;100.00
71774;BME280;59607;52.130;5.430;2023-05-10T03:18:07;100967.09;;;12.89;100.00
71774;BME280;59607;52.130;5.430;2023-05-10T03:23:27;100980.16;;;12.82;100.00
71774;BME280;59607;52.130;5.430;2023-05-10T03:25:53;100972.59;;;12.79;100.00
71774;BME280;59607;52.130;5.430;2023-05-10T03:28:21;100980.66;;;12.78;100.00
71774;BME280;59607;52.130;5.430;2023-05-10T03:30:52;100981.03;;;12.75;100.00
71774;BME280;59607;52.130;5.430;2023-05-10T03:33:22;100984.31;;;12.68;100.00
71774;BME280;59607;52.130;5.430;2023-05-10T03:35:48;100983.50;;;12.68;100.00
71774;BME280;59607;52.130;5.430;2023-05-10T03:38:14;100985.81;;;12.71;100.00
71774;BME280;59607;52.130;5.430;2023-05-10T03:40:41;100978.22;;;12.76;100.00
71774;BME280;59607;52.130;5.430;2023-05-10T03:43:08;100982.66;;;12.76;100.00
71774;BME280;59607;52.130;5.430;2023-05-10T03:45:34;100971.28;;;12.75;100.00
71774;BME280;59607;52.130;5.430;2023-05-10T03:48:03;100970.31;;;12.76;100.00
71774;BME280;59607;52.130;5.430;2023-05-10T03:50:34;100974.41;;;12.79;100.00
71774;BME280;59607;52.130;5.430;2023-05-10T03:53:04;100971.59;;;12.80;100.00
71774;BME280;59607;52.130;5.430;2023-05-10T03:55:30;100978.31;;;12.83;100.00
71774;BME280;59607;52.130;5.430;2023-05-10T03:58:10;100981.59;;;12.85;100.00
71774;BME280;59607;52.130;5.430;2023-05-10T04:00:39;100975.53;;;12.85;100.00
71774;BME280;59607;52.130;5.430;2023-05-10T04:03:15;100982.94;;;12.81;100.00
71774;BME280;59607;52.130;5.430;2023-05-10T04:06:10;100982.78;;;12.82;100.00
71774;BME280;59607;52.130;5.430;2023-05-10T04:08:38;100983.56;;;12.83;100.00
71774;BME280;59607;52.130;5.430;2023-05-10T04:11:12;100991.94;;;12.87;100.00
71774;BME280;59607;52.130;5.430;2023-05-10T04:13:39;100977.81;;;12.88;100.00
71774;BME280;59607;52.130;5.430;2023-05-10T04:16:06;100993.09;;;12.92;100.00
71774;BME280;59607;52.130;5.430;2023-05-10T04:18:37;100988.00;;;12.91;100.00
71774;BME280;59607;52.130;5.430;2023-05-10T04:21:03;100991.94;;;12.87;100.00
71774;BME280;59607;52.130;5.430;2023-05-10T04:23:32;100989.66;;;12.83;100.00
71774;BME280;59607;52.130;5.430;2023-05-10T04:26:01;100988.53;;;12.86;100.00
71774;BME280;59607;52.130;5.430;2023-05-10T04:28:28;100988.34;;;12.88;100.00
71774;BME280;59607;52.130;5.430;2023-05-10T04:31:05;100981.25;;;12.88;100.00
71774;BME280;59607;52.130;5.430;2023-05-10T04:33:32;100989.16;;;12.88;100.00
71774;BME280;59607;52.130;5.430;2023-05-10T04:36:02;100995.41;;;12.87;100.00
71774;BME280;59607;52.130;5.430;2023-05-10T04:38:31;100988.34;;;12.88;100.00
71774;BME280;59607;52.130;5.430;2023-05-10T04:41:10;100983.69;;;12.90;100.00
71774;BME280;59607;52.130;5.430;2023-05-10T04:43:37;100977.63;;;12.89;100.00
71774;BME280;59607;52.130;5.430;2023-05-10T04:46:05;100988.44;;;12.94;100.00
71774;BME280;59607;52.130;5.430;2023-05-10T04:48:33;100988.78;;;12.91;100.00
71774;BME280;59607;52.130;5.430;2023-05-10T04:50:59;100996.69;;;12.91;100.00
71774;BME280;59607;52.130;5.430;2023-05-10T04:53:27;101005.25;;;12.93;100.00
71774;BME280;59607;52.130;5.430;2023-05-10T04:55:54;101002.59;;;12.93;100.00
71774;BME280;59607;52.130;5.430;2023-05-10T04:58:24;101000.81;;;12.94;100.00
71774;BME280;59607;52.130;5.430;2023-05-10T05:00:57;101010.28;;;13.03;100.00
71774;BME280;59607;52.130;5.430;2023-05-10T05:03:27;101004.50;;;13.08;100.00
71774;BME280;59607;52.130;5.430;2023-05-10T05:05:53;101005.50;;;13.07;100.00
71774;BME280;59607;52.130;5.430;2023-05-10T05:08:26;101006.78;;;13.11;100.00
71774;BME280;59607;52.130;5.430;2023-05-10T05:10:52;101013.97;;;13.17;100.00
71774;BME280;59607;52.130;5.430;2023-05-10T05:13:21;101013.63;;;13.20;100.00
71774;BME280;59607;52.130;5.430;2023-05-10T05:15:54;101015.16;;;13.15;100.00
71774;BME280;59607;52.130;5.430;2023-05-10T05:18:26;101014.13;;;13.16;100.00
71774;BME280;59607;52.130;5.430;2023-05-10T05:20:55;101019.88;;;13.19;100.00
71774;BME280;59607;52.130;5.430;2023-05-10T05:23:22;101022.03;;;13.16;100.00
71774;BME280;59607;52.130;5.430;2023-05-10T05:25:53;101021.41;;;13.14;100.00
71774;BME280;59607;52.130;5.430;2023-05-10T05:28:20;101021.25;;;13.15;100.00
71774;BME280;59607;52.130;5.430;2023-05-10T05:30:47;101022.88;;;13.16;100.00
71774;BME280;59607;52.130;5.430;2023-05-10T05:33:18;101028.63;;;13.20;100.00
71774;BME280;59607;52.130;5.430;2023-05-10T05:35:45;101031.25;;;13.20;100.00
71774;BME280;59607;52.130;5.430;2023-05-10T05:38:21;101031.53;;;13.25;100.00
71774;BME280;59607;52.130;5.430;2023-05-10T05:40:48;101035.63;;;13.28;100.00
71774;BME280;59607;52.130;5.430;2023-05-10T05:43:14;101032.81;;;13.29;100.00
71774;BME280;59607;52.130;5.430;2023-05-10T05:45:47;101033.19;;;13.26;100.00
71774;BME280;59607;52.130;5.430;2023-05-10T05:48:15;101036.78;;;13.25;100.00
71774;BME280;59607;52.130;5.430;2023-05-10T05:50:44;101042.88;;;13.26;100.00
71774;BME280;59607;52.130;5.430;2023-05-10T05:53:15;101045.88;;;13.23;100.00
71774;BME280;59607;52.130;5.430;2023-05-10T05:55:52;101045.41;;;13.19;100.00
71774;BME280;59607;52.130;5.430;2023-05-10T05:58:22;101049.38;;;13.15;100.00
71774;BME280;59607;52.130;5.430;2023-05-10T06:00:50;101047.22;;;13.18;100.00
71774;BME280;59607;52.130;5.430;2023-05-10T06:03:20;101052.31;;;13.20;100.00
71774;BME280;59607;52.130;5.430;2023-05-10T06:05:52;101056.09;;;13.17;100.00
71774;BME280;59607;52.130;5.430;2023-05-10T06:08:21;101058.28;;;13.14;100.00
71774;BME280;59607;52.130;5.430;2023-05-10T06:10:51;101062.56;;;13.15;100.00
71774;BME280;59607;52.130;5.430;2023-05-10T06:13:20;101064.53;;;13.13;100.00
71774;BME280;59607;52.130;5.430;2023-05-10T06:15:47;101071.56;;;13.20;100.00
71774;BME280;59607;52.130;5.430;2023-05-10T06:18:16;101073.56;;;13.18;100.00
71774;BME280;59607;52.130;5.430;2023-05-10T06:20:53;101068.47;;;13.17;100.00
71774;BME280;59607;52.130;5.430;2023-05-10T06:23:20;101077.16;;;13.17;100.00
71774;BME280;59607;52.130;5.430;2023-05-10T06:25:49;101080.63;;;13.18;100.00
71774;BME280;59607;52.130;5.430;2023-05-10T06:28:15;101079.34;;;13.14;100.00
71774;BME280;59607;52.130;5.430;2023-05-10T06:30:45;101071.91;;;13.17;100.00
71774;BME280;59607;52.130;5.430;2023-05-10T06:33:11;101070.72;;;13.28;100.00
71774;BME280;59607;52.130;5.430;2023-05-10T06:35:38;101071.16;;;13.32;100.00
71774;BME280;59607;52.130;5.430;2023-05-10T06:38:07;101072.63;;;13.35;100.00
71774;BME280;59607;52.130;5.430;2023-05-10T06:40:41;101077.91;;;13.35;100.00
71774;BME280;59607;52.130;5.430;2023-05-10T06:43:10;101079.00;;;13.40;100.00
71774;BME280;59607;52.130;5.430;2023-05-10T06:45:38;101083.91;;;13.43;100.00
71774;BME280;59607;52.130;5.430;2023-05-10T06:48:04;101084.09;;;13.42;100.00
71774;BME280;59607;52.130;5.430;2023-05-10T06:50:37;101090.72;;;13.38;100.00
71774;BME280;59607;52.130;5.430;2023-05-10T06:53:06;101094.63;;;13.42;100.00
71774;BME280;59607;52.130;5.430;2023-05-10T06:55:32;101099.09;;;13.41;100.00
71774;BME280;59607;52.130;5.430;2023-05-10T06:58:01;101093.66;;;13.43;100.00
71774;BME280;59607;52.130;5.430;2023-05-10T07:00:31;101095.66;;;13.41;100.00
71774;BME280;59607;52.130;5.430;2023-05-10T07:03:00;101097.41;;;13.49;100.00
71774;BME280;59607;52.130;5.430;2023-05-10T07:05:31;101094.75;;;13.57;100.00
71774;BME280;59607;52.130;5.430;2023-05-10T07:07:58;101097.66;;;13.62;100.00
71774;BME280;59607;52.130;5.430;2023-05-10T07:10:32;101106.09;;;13.57;100.00
71774;BME280;59607;52.130;5.430;2023-05-10T07:12:59;101110.38;;;13.59;100.00
71774;BME280;59607;52.130;5.430;2023-05-10T07:15:29;101106.38;;;13.63;100.00
71774;BME280;59607;52.130;5.430;2023-05-10T07:17:56;101108.56;;;13.59;100.00
71774;BME280;59607;52.130;5.430;2023-05-10T07:20:22;101110.66;;;13.64;100.00
71774;BME280;59607;52.130;5.430;2023-05-10T07:22:55;101110.03;;;13.62;100.00
71774;BME280;59607;52.130;5.430;2023-05-10T07:25:24;101108.66;;;13.66;100.00
71774;BME280;59607;52.130;5.430;2023-05-10T07:27:50;101109.47;;;13.66;100.00
71774;BME280;59607;52.130;5.430;2023-05-10T07:30:23;101116.56;;;13.66;100.00
71774;BME280;59607;52.130;5.430;2023-05-10T07:32:50;101119.66;;;13.69;100.00
71774;BME280;59607;52.130;5.430;2023-05-10T07:35:26;101120.31;;;13.72;100.00
71774;BME280;59607;52.130;5.430;2023-05-10T07:37:52;101130.69;;;13.73;100.00
71774;BME280;59607;52.130;5.430;2023-05-10T07:40:22;101125.06;;;13.76;100.00
71774;BME280;59607;52.130;5.430;2023-05-10T07:42:51;101131.44;;;13.82;100.00
71774;BME280;59607;52.130;5.430;2023-05-10T07:45:18;101136.09;;;13.95;100.00
71774;BME280;59607;52.130;5.430;2023-05-10T07:47:44;101127.59;;;14.08;100.00
71774;BME280;59607;52.130;5.430;2023-05-10T07:50:14;101130.16;;;14.16;100.00
71774;BME280;59607;52.130;5.430;2023-05-10T07:52:41;101139.63;;;14.26;100.00
71774;BME280;59607;52.130;5.430;2023-05-10T07:55:13;101142.00;;;14.36;100.00
71774;BME280;59607;52.130;5.430;2023-05-10T07:57:43;101142.66;;;14.38;100.00
71774;BME280;59607;52.130;5.430;2023-05-10T08:00:22;101144.28;;;14.39;100.00
71774;BME280;59607;52.130;5.430;2023-05-10T08:02:49;101144.47;;;14.37;100.00
71774;BME280;59607;52.130;5.430;2023-05-10T08:05:28;101154.84;;;14.39;100.00
71774;BME280;59607;52.130;5.430;2023-05-10T08:07:54;101148.75;;;14.38;100.00
71774;BME280;59607;52.130;5.430;2023-05-10T08:10:38;101153.69;;;14.41;100.00
71774;BME280;59607;52.130;5.430;2023-05-10T08:13:11;101154.03;;;14.38;100.00
71774;BME280;59607;52.130;5.430;2023-05-10T08:15:41;101157.47;;;14.39;100.00
71774;BME280;59607;52.130;5.430;2023-05-10T08:18:09;101160.03;;;14.47;100.00
71774;BME280;59607;52.130;5.430;2023-05-10T08:20:36;101161.88;;;14.47;100.00
71774;BME280;59607;52.130;5.430;2023-05-10T08:23:06;101165.84;;;14.42;100.00
71774;BME280;59607;52.130;5.430;2023-05-10T08:25:33;101164.41;;;14.40;100.00
71774;BME280;59607;52.130;5.430;2023-05-10T08:27:59;101161.31;;;14.36;100.00
71774;BME280;59607;52.130;5.430;2023-05-10T08:30:32;101160.13;;;14.39;100.00
71774;BME280;59607;52.130;5.430;2023-05-10T08:33:09;101165.25;;;14.55;100.00
71774;BME280;59607;52.130;5.430;2023-05-10T08:35:41;101174.53;;;14.66;100.00
71774;BME280;59607;52.130;5.430;2023-05-10T08:38:08;101173.72;;;14.66;100.00
71774;BME280;59607;52.130;5.430;2023-05-10T08:40:41;101182.00;;;14.63;100.00
71774;BME280;59607;52.130;5.430;2023-05-10T08:43:10;101182.09;;;14.54;100.00
71774;BME280;59607;52.130;5.430;2023-05-10T08:45:44;101184.97;;;14.44;100.00
71774;BME280;59607;52.130;5.430;2023-05-10T08:48:16;101193.91;;;14.43;100.00
71774;BME280;59607;52.130;5.430;2023-05-10T08:51:03;101191.63;;;14.55;100.00
71774;BME280;59607;52.130;5.430;2023-05-10T08:53:36;101196.38;;;14.60;100.00
71774;BME280;59607;52.130;5.430;2023-05-10T08:56:06;101197.19;;;14.61;100.00
71774;BME280;59607;52.130;5.430;2023-05-10T08:58:37;101204.94;;;14.62;100.00
71774;BME280;59607;52.130;5.430;2023-05-10T09:01:05;101204.84;;;14.71;100.00
71774;BME280;59607;52.130;5.430;2023-05-10T09:03:35;101203.25;;;15.00;100.00
71774;BME280;59607;52.130;5.430;2023-05-10T09:06:01;101204.72;;;15.39;100.00
71774;BME280;59607;52.130;5.430;2023-05-10T09:08:28;101194.69;;;15.72;100.00
71774;BME280;59607;52.130;5.430;2023-05-10T09:11:00;101195.72;;;15.93;100.00
71774;BME280;59607;52.130;5.430;2023-05-10T09:13:28;101198.75;;;16.11;100.00
71774;BME280;59607;52.130;5.430;2023-05-10T09:15:57;101195.13;;;16.19;100.00
71774;BME280;59607;52.130;5.430;2023-05-10T09:18:39;101195.38;;;16.24;98.86
71774;BME280;59607;52.130;5.430;2023-05-10T09:21:08;101204.25;;;16.38;95.28
71774;BME280;59607;52.130;5.430;2023-05-10T09:23:42;101199.91;;;16.31;93.09
71774;BME280;59607;52.130;5.430;2023-05-10T09:26:14;101204.88;;;16.40;92.66
71774;BME280;59607;52.130;5.430;2023-05-10T09:31:18;101202.97;;;16.98;90.69
71774;BME280;59607;52.130;5.430;2023-05-10T09:33:53;101205.56;;;17.27;88.97
71774;BME280;59607;52.130;5.430;2023-05-10T09:36:20;101210.56;;;17.64;86.73
71774;BME280;59607;52.130;5.430;2023-05-10T09:38:50;101208.53;;;17.80;79.77
71774;BME280;59607;52.130;5.430;2023-05-10T09:41:22;101217.50;;;17.65;78.56
71774;BME280;59607;52.130;5.430;2023-05-10T09:43:57;101222.00;;;17.71;81.28
71774;BME280;59607;52.130;5.430;2023-05-10T09:46:23;101222.25;;;18.10;80.25
71774;BME280;59607;52.130;5.430;2023-05-10T09:48:53;101219.63;;;18.31;78.19
71774;BME280;59607;52.130;5.430;2023-05-10T09:51:29;101220.88;;;18.15;80.39
71774;BME280;59607;52.130;5.430;2023-05-10T09:54:16;101228.75;;;17.94;81.62
71774;BME280;59607;52.130;5.430;2023-05-10T09:56:44;101224.06;;;17.76;79.74
71774;BME280;59607;52.130;5.430;2023-05-10T09:59:12;101231.53;;;17.52;81.40
71774;BME280;59607;52.130;5.430;2023-05-10T10:01:51;101230.19;;;17.14;82.79
71774;BME280;59607;52.130;5.430;2023-05-10T10:04:23;101240.25;;;16.90;85.59
71774;BME280;59607;52.130;5.430;2023-05-10T10:07:10;101242.31;;;16.66;86.24
71774;BME280;59607;52.130;5.430;2023-05-10T10:09:38;101238.22;;;16.63;90.16
71774;BME280;59607;52.130;5.430;2023-05-10T10:12:13;101241.22;;;16.53;89.91
71774;BME280;59607;52.130;5.430;2023-05-10T10:14:39;101246.97;;;16.57;92.29
71774;BME280;59607;52.130;5.430;2023-05-10T10:17:09;101249.66;;;16.64;90.98
71774;BME280;59607;52.130;5.430;2023-05-10T10:19:39;101241.13;;;16.69;90.05
71774;BME280;59607;52.130;5.430;2023-05-10T10:22:06;101251.00;;;16.82;89.65
71774;BME280;59607;52.130;5.430;2023-05-10T10:24:40;101245.78;;;17.02;88.87
71774;BME280;59607;52.130;5.430;2023-05-10T10:33:55;101250.38;;;17.15;86.59
71774;BME280;59607;52.130;5.430;2023-05-10T10:36:07;101249.69;;;17.06;86.29
71774;BME280;59607;52.130;5.430;2023-05-10T10:38:57;101255.56;;;17.01;87.85
71774;BME280;59607;52.130;5.430;2023-05-10T10:41:38;101261.59;;;16.82;89.43
71774;BME280;59607;52.130;5.430;2023-05-10T10:44:34;101254.88;;;16.86;89.17
71774;BME280;59607;52.130;5.430;2023-05-10T10:52:36;101252.66;;;16.89;87.28
71774;BME280;59607;52.130;5.430;2023-05-10T10:55:08;101257.56;;;16.93;87.16
71774;BME280;59607;52.130;5.430;2023-05-10T11:03:04;101252.22;;;17.21;89.98
71774;BME280;59607;52.130;5.430;2023-05-10T11:05:53;101253.22;;;17.13;84.06
71774;BME280;59607;52.130;5.430;2023-05-10T11:08:28;101255.00;;;17.06;84.63
71774;BME280;59607;52.130;5.430;2023-05-10T11:19:13;101267.53;;;16.90;85.88
71774;BME280;59607;52.130;5.430;2023-05-10T11:24:34;101269.94;;;16.78;87.74
71774;BME280;59607;52.130;5.430;2023-05-10T11:27:01;101262.78;;;16.79;90.40
71774;BME280;59607;52.130;5.430;2023-05-10T11:29:36;101273.16;;;16.81;89.30
71774;BME280;59607;52.130;5.430;2023-05-10T11:32:06;101271.25;;;16.96;89.63
71774;BME280;59607;52.130;5.430;2023-05-10T11:34:35;101266.06;;;17.17;87.40
71774;BME280;59607;52.130;5.430;2023-05-10T11:37:03;101266.44;;;17.56;85.62
71774;BME280;59607;52.130;5.430;2023-05-10T11:39:33;101265.13;;;17.94;82.81
71774;BME280;59607;52.130;5.430;2023-05-10T11:42:02;101264.97;;;18.29;83.52
71774;BME280;59607;52.130;5.430;2023-05-10T11:44:32;101262.88;;;18.72;75.53
71774;BME280;59607;52.130;5.430;2023-05-10T11:47:11;101264.28;;;18.95;77.02
71774;BME280;59607;52.130;5.430;2023-05-10T11:49:44;101258.13;;;19.01;75.71
71774;BME280;59607;52.130;5.430;2023-05-10T11:52:14;101260.56;;;19.03;74.37
71774;BME280;59607;52.130;5.430;2023-05-10T11:54:53;101266.91;;;19.02;72.74
71774;BME280;59607;52.130;5.430;2023-05-10T11:57:21;101263.50;;;18.74;74.04
71774;BME280;59607;52.130;5.430;2023-05-10T11:59:56;101273.50;;;18.79;76.76
71774;BME280;59607;52.130;5.430;2023-05-10T12:02:23;101272.31;;;18.74;75.29
71774;BME280;59607;52.130;5.430;2023-05-10T12:05:09;101275.59;;;18.29;77.41
71774;BME280;59607;52.130;5.430;2023-05-10T12:07:39;101287.59;;;18.11;77.86
71774;BME280;59607;52.130;5.430;2023-05-10T12:10:13;101273.88;;;17.87;80.36
71774;BME280;59607;52.130;5.430;2023-05-10T12:12:45;101290.00;;;17.93;80.54
71774;BME280;59607;52.130;5.430;2023-05-10T12:15:17;101280.84;;;18.02;82.72
71774;BME280;59607;52.130;5.430;2023-05-10T12:17:49;101292.88;;;17.91;79.73
71774;BME280;59607;52.130;5.430;2023-05-10T12:20:20;101284.72;;;17.99;78.80
71774;BME280;59607;52.130;5.430;2023-05-10T12:22:54;101278.88;;;18.24;74.74
71774;BME280;59607;52.130;5.430;2023-05-10T12:25:31;101281.53;;;18.24;75.36
71774;BME280;59607;52.130;5.430;2023-05-10T12:28:09;101271.47;;;18.67;75.44
71774;BME280;59607;52.130;5.430;2023-05-10T12:30:36;101277.97;;;18.92;70.46
71774;BME280;59607;52.130;5.430;2023-05-10T12:33:14;101273.88;;;19.09;73.22
71774;BME280;59607;52.130;5.430;2023-05-10T12:35:54;101271.97;;;19.30;71.00
71774;BME280;59607;52.130;5.430;2023-05-10T12:41:12;101277.41;;;19.56;70.72
71774;BME280;59607;52.130;5.430;2023-05-10T12:43:43;101271.25;;;19.55;67.09
71774;BME280;59607;52.130;5.430;2023-05-10T12:46:19;101277.53;;;19.61;67.59
71774;BME280;59607;52.130;5.430;2023-05-10T12:48:45;101269.91;;;19.78;67.35
71774;BME280;59607;52.130;5.430;2023-05-10T12:51:16;101271.63;;;19.66;68.43
71774;BME280;59607;52.130;5.430;2023-05-10T12:53:47;101280.19;;;19.68;69.48
71774;BME280;59607;52.130;5.430;2023-05-10T12:56:18;101280.56;;;19.71;67.88
71774;BME280;59607;52.130;5.430;2023-05-10T12:58:47;101280.38;;;19.73;66.10
71774;BME280;59607;52.130;5.430;2023-05-10T13:01:14;101287.59;;;19.66;67.43
71774;BME280;59607;52.130;5.430;2023-05-10T13:04:03;101284.75;;;19.54;68.17
71774;BME280;59607;52.130;5.430;2023-05-10T13:06:30;101284.13;;;19.58;68.96
71774;BME280;59607;52.130;5.430;2023-05-10T13:08:56;101290.72;;;19.49;69.23
71774;BME280;59607;52.130;5.430;2023-05-10T13:11:25;101291.56;;;19.50;70.58
71774;BME280;59607;52.130;5.430;2023-05-10T13:14:02;101290.38;;;19.32;69.66
71774;BME280;59607;52.130;5.430;2023-05-10T13:16:31;101293.09;;;19.18;70.83
71774;BME280;59607;52.130;5.430;2023-05-10T13:19:05;101304.97;;;18.89;71.55
71774;BME280;59607;52.130;5.430;2023-05-10T13:21:49;101319.72;;;18.44;76.48
71774;BME280;59607;52.130;5.430;2023-05-10T13:24:21;101312.81;;;17.73;82.21
71774;BME280;59607;52.130;5.430;2023-05-10T13:26:48;101328.09;;;17.22;86.57
71774;BME280;59607;52.130;5.430;2023-05-10T13:29:18;101329.69;;;16.88;88.58
71774;BME280;59607;52.130;5.430;2023-05-10T13:31:52;101328.78;;;16.52;92.20
71774;BME280;59607;52.130;5.430;2023-05-10T13:34:34;101326.66;;;16.19;94.74
71774;BME280;59607;52.130;5.430;2023-05-10T13:37:01;101336.31;;;15.89;99.21
71774;BME280;59607;52.130;5.430;2023-05-10T13:39:28;101336.59;;;15.64;100.00
71774;BME280;59607;52.130;5.430;2023-05-10T13:42:05;101341.47;;;15.46;100.00
71774;BME280;59607;52.130;5.430;2023-05-10T13:44:31;101345.81;;;15.23;100.00
71774;BME280;59607;52.130;5.430;2023-05-10T13:47:05;101353.28;;;15.04;100.00
71774;BME280;59607;52.130;5.430;2023-05-10T13:49:35;101360.34;;;14.89;100.00
71774;BME280;59607;52.130;5.430;2023-05-10T13:52:02;101361.41;;;14.79;100.00
71774;BME280;59607;52.130;5.430;2023-05-10T13:54:38;101362.25;;;14.72;100.00
71774;BME280;59607;52.130;5.430;2023-05-10T13:57:04;101353.25;;;14.66;100.00
71774;BME280;59607;52.130;5.430;2023-05-10T13:59:33;101359.56;;;14.56;100.00